aviador You're here:

VNKT Decoded Metar

KATHMANDU in NEPAL
Report Time2016-12-08 15:50:00
UTC Time2016-12-08 16:03:13
Flight Rules mvfr MVFR
Wind100° at 03 kt
W.Decomp.*RWY 02: 0.5 kt HW 3.0 kt RCW
W.Rank100° ranks 12
Current wind is below 100° avg. (4.1)
Visibility6000 m
Phenomena:N/A
Clouds:Few 015 Hf
Expected CloudBase > 2,000 ft AGL from Temp-Dew spread
CeilingNone
Temp10°C (ISA +4)
Dew Point05°C (71% RH)
AAT7.8°C
QNH1020 hPa
Density Alt4,718 ft
Elevation4,386 ft
Report Wrong Elevation
Raw Report
VNKT 081550Z 10003KT 6000 FEW015 10/05 Q1020 NOSIG=

Extra information for VNKT:More info

Metar Taf Metar & Taf Last 4 Metars F.Rules Stats Wind Profile Meteogram Temp Stats Airport Information Weather charts Add Link Nearby VenuesMetar ALERT Operation Metar Decoded Social comments